Time;durP1;ratioP1;P1;durP2;ratioP2;P2;SDS_P1;SDS_P2;PMS_P1;PMS_P2;Temp;Humidity;BMP_temperature;BMP_pressure;BME280_temperature;BME280_humidity;BME280_pressure;Samples;Min_cycle;Max_cycle;Signal;HPM_P1;HPM_P2
2020/12/19 00:00:06;;;;;;;18.00;12.97;;;;;;;4.67;85.29;101201.84;5044812;28;20214;-66
2020/12/19 00:02:33;;;;;;;18.47;13.30;;;;;;;4.67;85.14;101204.47;5039611;28;20205;-67
2020/12/19 00:05:00;;;;;;;16.27;13.00;;;;;;;4.65;85.14;101193.13;5045524;28;20229;-67
2020/12/19 00:07:26;;;;;;;19.37;12.73;;;;;;;4.66;85.10;101189.53;5036077;28;20202;-66
2020/12/19 00:09:53;;;;;;;18.80;12.90;;;;;;;4.66;84.90;101192.19;5044415;28;20209;-67
2020/12/19 00:12:20;;;;;;;18.33;12.80;;;;;;;4.64;85.08;101183.47;5049490;28;20197;-68
2020/12/19 00:14:46;;;;;;;19.83;12.63;;;;;;;4.63;85.42;101184.38;5039643;28;20222;-67
2020/12/19 00:17:13;;;;;;;14.57;11.73;;;;;;;4.62;84.98;101174.75;5042253;28;20226;-67
2020/12/19 00:19:39;;;;;;;19.93;12.70;;;;;;;4.61;85.33;101178.28;5041785;28;20690;-67
2020/12/19 00:22:06;;;;;;;17.57;12.27;;;;;;;4.60;85.40;101189.75;5043735;28;20202;-67
2020/12/19 00:24:32;;;;;;;18.10;12.33;;;;;;;4.60;85.41;101181.84;5048679;28;20677;-67
2020/12/19 00:26:59;;;;;;;17.90;12.93;;;;;;;4.59;85.36;101188.03;5039031;28;20225;-67
2020/12/19 00:29:25;;;;;;;20.33;12.50;;;;;;;4.56;85.47;101177.56;5046924;28;20214;-67
2020/12/19 00:31:51;;;;;;;18.13;11.97;;;;;;;4.54;85.05;101174.09;5035186;28;20210;-67
2020/12/19 00:34:18;;;;;;;17.57;12.33;;;;;;;4.53;85.55;101172.38;5031274;28;20202;-67
2020/12/19 00:36:44;;;;;;;16.83;12.80;;;;;;;4.55;85.70;101165.28;5031863;28;20819;-66
2020/12/19 00:39:10;;;;;;;22.70;13.23;;;;;;;4.58;85.78;101167.84;5044037;28;20208;-66
2020/12/19 00:41:37;;;;;;;19.70;13.00;;;;;;;4.59;85.81;101158.13;5040450;28;20209;-66
2020/12/19 00:44:03;;;;;;;19.77;13.37;;;;;;;4.63;85.88;101157.16;5041075;28;20270;-67
2020/12/19 00:46:29;;;;;;;18.77;12.13;;;;;;;4.65;85.88;101150.91;5034932;28;20228;-67
2020/12/19 00:48:55;;;;;;;17.77;12.83;;;;;;;4.67;85.86;101159.63;5039509;28;20206;-66
2020/12/19 00:51:23;;;;;;;19.80;13.17;;;;;;;4.69;85.60;101146.38;5042464;28;20236;-65
2020/12/19 00:53:50;;;;;;;24.83;14.87;;;;;;;4.69;85.66;101141.97;5041250;28;20201;-67
2020/12/19 00:56:18;;;;;;;26.97;14.23;;;;;;;4.69;85.69;101147.25;5032963;28;20229;-67
2020/12/19 00:58:45;;;;;;;29.07;15.53;;;;;;;4.70;85.66;101141.06;5040795;28;20220;-66
2020/12/19 01:01:13;;;;;;;22.93;14.67;;;;;;;4.70;85.98;101148.13;5046467;28;20202;-67
2020/12/19 01:03:39;;;;;;;23.53;14.13;;;;;;;4.69;85.67;101141.09;5037063;28;20229;-67
2020/12/19 01:06:05;;;;;;;25.20;15.03;;;;;;;4.71;86.08;101141.91;5051495;28;20223;-67
2020/12/19 01:08:31;;;;;;;25.33;13.67;;;;;;;4.71;85.98;101134.88;5038305;28;20206;-67
2020/12/19 01:10:58;;;;;;;15.07;11.87;;;;;;;4.70;86.04;101133.16;5045643;28;20210;-67
2020/12/19 01:13:24;;;;;;;19.77;13.00;;;;;;;4.72;86.34;101118.13;5043750;28;20220;-67
2020/12/19 01:15:50;;;;;;;17.63;12.20;;;;;;;4.72;85.83;101128.69;5037309;28;20332;-67
2020/12/19 01:18:17;;;;;;;20.40;13.13;;;;;;;4.71;85.88;101126.97;5051535;28;20209;-67
2020/12/19 01:20:43;;;;;;;22.00;13.90;;;;;;;4.70;86.00;101122.59;5050459;28;20692;-66
2020/12/19 01:23:09;;;;;;;16.00;11.70;;;;;;;4.69;86.06;101123.50;5042938;28;20205;-67
2020/12/19 01:25:35;;;;;;;15.47;10.43;;;;;;;4.70;85.99;101130.50;5044953;28;20233;-67
2020/12/19 01:28:01;;;;;;;26.27;15.77;;;;;;;4.70;86.33;101127.88;5032259;28;20319;-67
2020/12/19 01:30:28;;;;;;;23.13;14.73;;;;;;;4.71;86.20;101120.81;5043660;28;20258;-67
2020/12/19 01:32:54;;;;;;;23.93;14.60;;;;;;;4.71;85.95;101129.59;5033059;28;20663;-67
2020/12/19 01:35:21;;;;;;;24.97;15.70;;;;;;;4.70;86.05;101129.63;5041552;28;20651;-67
2020/12/19 01:37:47;;;;;;;28.70;16.23;;;;;;;4.69;85.92;101122.63;5050540;28;20205;-66
2020/12/19 01:40:13;;;;;;;26.50;16.00;;;;;;;4.68;86.17;101123.53;5033661;28;20206;-66
2020/12/19 01:42:39;;;;;;;26.73;14.77;;;;;;;4.67;85.99;101117.41;5044389;28;20201;-67
2020/12/19 01:45:05;;;;;;;22.77;13.43;;;;;;;4.67;86.34;101125.31;5044632;28;20225;-67
2020/12/19 01:47:34;;;;;;;18.63;12.40;;;;;;;4.65;85.97;101121.03;5047771;28;20210;-66
2020/12/19 01:50:01;;;;;;;19.10;12.90;;;;;;;4.64;86.23;101117.53;5035335;28;20224;-66
2020/12/19 01:52:30;;;;;;;20.53;12.93;;;;;;;4.63;86.19;101114.94;5034679;28;20210;-67
2020/12/19 01:54:57;;;;;;;21.00;13.63;;;;;;;4.61;86.19;101112.34;5048374;28;20212;-67
2020/12/19 01:57:25;;;;;;;17.10;12.17;;;;;;;4.60;86.22;101112.38;5040013;28;20233;-66
2020/12/19 01:59:51;;;;;;;17.77;12.73;;;;;;;4.59;86.39;101108.03;5055903;28;20205;-67
2020/12/19 02:02:23;;;;;;;20.50;13.53;;;;;;;4.57;86.49;101110.72;5053886;28;20216;-66
2020/12/19 02:04:49;;;;;;;21.07;13.17;;;;;;;4.57;86.20;101105.44;5055346;28;20254;-66
2020/12/19 02:07:17;;;;;;;21.43;12.97;;;;;;;4.56;86.73;101103.69;5054578;28;20229;-67
2020/12/19 02:09:44;;;;;;;18.53;12.83;;;;;;;4.56;86.28;101093.16;5047140;28;20671;-67
2020/12/19 02:12:11;;;;;;;20.73;13.07;;;;;;;4.58;86.41;101099.25;5048402;28;20212;-66
2020/12/19 02:14:38;;;;;;;19.23;12.50;;;;;;;4.56;86.49;101087.88;5035075;28;20685;-66
2020/12/19 02:17:06;;;;;;;15.37;11.50;;;;;;;4.52;86.30;101088.88;5047366;28;20237;-67
2020/12/19 02:19:32;;;;;;;17.13;12.27;;;;;;;4.51;86.48;101093.28;5042992;28;20235;-67
2020/12/19 02:21:59;;;;;;;17.73;12.60;;;;;;;4.47;86.38;101078.50;5047809;28;20743;-67
2020/12/19 02:24:26;;;;;;;18.63;12.00;;;;;;;4.45;86.09;101076.81;5048429;28;20241;-66
2020/12/19 02:26:54;;;;;;;19.57;12.37;;;;;;;4.42;86.35;101076.91;5050417;28;20694;-66
2020/12/19 02:29:21;;;;;;;17.00;12.50;;;;;;;4.37;86.20;101079.66;5043336;28;20213;-67
2020/12/19 02:31:47;;;;;;;16.30;12.17;;;;;;;4.34;86.30;101086.81;5036101;28;20199;-67
2020/12/19 02:34:13;;;;;;;18.07;11.90;;;;;;;4.31;86.34;101076.34;5044035;28;20194;-67
2020/12/19 02:36:40;;;;;;;18.73;12.80;;;;;;;4.29;86.12;101075.56;5045246;28;20225;-66
2020/12/19 02:39:07;;;;;;;20.60;12.50;;;;;;;4.26;86.44;101068.59;5046143;28;20205;-66
2020/12/19 02:41:35;;;;;;;21.13;12.57;;;;;;;4.23;86.43;101063.41;5049733;28;20208;-64
2020/12/19 02:44:01;;;;;;;20.93;13.50;;;;;;;4.20;86.01;101066.16;5054416;28;20197;-66
2020/12/19 02:46:27;;;;;;;17.43;12.50;;;;;;;4.17;86.46;101064.47;5053383;28;20221;-66
2020/12/19 02:48:53;;;;;;;27.33;14.97;;;;;;;4.18;86.64;101054.78;5039874;28;20584;-66
2020/12/19 02:51:19;;;;;;;20.90;14.53;;;;;;;4.16;86.79;101051.31;5045490;28;20208;-66
2020/12/19 02:53:45;;;;;;;23.40;13.97;;;;;;;4.18;86.21;101047.75;5048846;28;20673;-67
2020/12/19 02:56:11;;;;;;;19.77;13.93;;;;;;;4.18;86.34;101037.19;5051632;28;20770;-66
2020/12/19 02:58:38;;;;;;;23.20;14.70;;;;;;;4.19;86.57;101030.16;5046685;28;20210;-66
2020/12/19 03:01:04;;;;;;;22.60;14.07;;;;;;;4.19;86.78;101032.78;5050300;28;20205;-66
2020/12/19 03:03:30;;;;;;;21.07;15.13;;;;;;;4.18;86.67;101028.41;5048034;28;20212;-66
2020/12/19 03:05:56;;;;;;;23.53;15.00;;;;;;;4.18;86.68;101033.69;5042823;28;20230;-66
2020/12/19 03:08:22;;;;;;;22.83;15.00;;;;;;;4.17;86.77;101035.47;5043594;28;20678;-66
2020/12/19 03:10:48;;;;;;;21.37;14.10;;;;;;;4.16;86.14;101043.41;5044000;28;20202;-66
2020/12/19 03:13:14;;;;;;;24.60;15.13;;;;;;;4.14;86.47;101042.59;5041900;28;20205;-66
2020/12/19 03:15:41;;;;;;;24.97;15.60;;;;;;;4.11;86.44;101043.59;5046591;28;20225;-66
2020/12/19 03:18:07;;;;;;;23.33;14.83;;;;;;;4.09;86.86;101045.41;5043111;28;20764;-66
2020/12/19 03:20:33;;;;;;;22.37;14.83;;;;;;;4.07;86.76;101051.63;5051381;28;20205;-66
2020/12/19 03:22:59;;;;;;;24.73;15.27;;;;;;;4.06;86.47;101057.81;5037521;28;20202;-67
2020/12/19 03:25:26;;;;;;;22.70;15.07;;;;;;;4.04;86.97;101062.25;5043521;28;20244;-66
2020/12/19 03:27:52;;;;;;;20.87;13.77;;;;;;;4.01;86.41;101062.34;5038175;28;20225;-66
2020/12/19 03:30:18;;;;;;;23.73;15.03;;;;;;;3.99;86.42;101065.00;5053382;28;20202;-66
2020/12/19 03:32:45;;;;;;;22.27;14.67;;;;;;;3.97;86.41;101058.91;5038477;28;20202;-66
2020/12/19 03:35:11;;;;;;;25.57;15.60;;;;;;;3.98;86.41;101046.59;5053335;28;20248;-66
2020/12/19 03:37:37;;;;;;;25.27;16.13;;;;;;;3.97;86.48;101043.09;5051006;28;20210;-66
2020/12/19 03:40:04;;;;;;;22.23;15.13;;;;;;;3.98;86.61;101050.09;5049895;28;20701;-66
2020/12/19 03:42:30;;;;;;;22.27;14.90;;;;;;;3.97;86.71;101040.47;5043474;28;20214;-63
2020/12/19 03:44:56;;;;;;;21.87;13.93;;;;;;;3.93;86.10;101040.63;5052847;28;20312;-66
2020/12/19 03:47:23;;;;;;;24.03;15.27;;;;;;;3.88;86.71;101019.69;5040877;28;20234;-66
2020/12/19 03:49:50;;;;;;;25.27;15.40;;;;;;;3.85;86.87;101019.78;5044265;28;20206;-66
2020/12/19 03:52:16;;;;;;;22.40;14.57;;;;;;;3.84;86.66;101013.63;5044713;28;20210;-66
2020/12/19 03:54:42;;;;;;;19.07;13.47;;;;;;;3.81;86.06;101028.66;5038454;28;20210;-66
2020/12/19 03:57:09;;;;;;;20.87;14.40;;;;;;;3.76;86.04;101033.22;5043731;28;20229;-66
2020/12/19 03:59:35;;;;;;;21.67;14.97;;;;;;;3.70;86.71;101038.66;5046360;28;20209;-66
2020/12/19 04:02:01;;;;;;;25.83;15.93;;;;;;;3.69;86.73;101039.56;5050175;28;20202;-66
2020/12/19 04:04:27;;;;;;;22.33;15.47;;;;;;;3.67;86.56;101029.06;5046571;28;20225;-67
2020/12/19 04:06:54;;;;;;;22.57;15.03;;;;;;;3.66;86.53;101035.25;5038467;28;20221;-66
2020/12/19 04:09:20;;;;;;;23.53;15.50;;;;;;;3.64;86.90;101021.25;5047958;28;20205;-66
2020/12/19 04:11:46;;;;;;;27.23;16.47;;;;;;;3.64;86.99;101020.41;5031855;28;20206;-66
2020/12/19 04:14:12;;;;;;;26.80;16.23;;;;;;;3.65;87.10;101014.22;5045825;28;20263;-66
2020/12/19 04:16:38;;;;;;;29.87;17.23;;;;;;;3.66;86.84;101018.59;5041284;28;20225;-66
2020/12/19 04:19:04;;;;;;;32.27;18.30;;;;;;;3.66;86.94;101024.72;5035419;28;20205;-66
2020/12/19 04:21:30;;;;;;;27.50;16.93;;;;;;;3.65;86.39;101024.75;5052125;28;20201;-63
2020/12/19 04:23:57;;;;;;;29.23;17.27;;;;;;;3.64;86.90;101023.03;5051686;28;20205;-66
2020/12/19 04:26:23;;;;;;;33.67;17.97;;;;;;;3.64;86.49;101025.66;5045764;28;20710;-66
2020/12/19 04:28:49;;;;;;;32.07;18.50;;;;;;;3.65;86.28;101011.59;5051894;28;20596;-66
2020/12/19 04:31:15;;;;;;;26.93;16.90;;;;;;;3.65;86.69;101008.97;5037948;28;20677;-66
2020/12/19 04:33:41;;;;;;;31.33;18.50;;;;;;;3.68;86.67;101009.72;5040215;28;20221;-66
2020/12/19 04:36:07;;;;;;;32.43;18.37;;;;;;;3.69;86.80;101019.38;5045540;28;20218;-66
2020/12/19 04:38:33;;;;;;;29.87;18.63;;;;;;;3.71;86.76;101012.28;5040334;28;20210;-66
2020/12/19 04:41:00;;;;;;;35.37;20.37;;;;;;;3.72;87.41;101014.00;5038081;28;20203;-67
2020/12/19 04:43:27;;;;;;;34.70;20.37;;;;;;;3.74;86.82;101006.94;5038222;28;20225;-66
2020/12/19 04:45:55;;;;;;;33.77;19.87;;;;;;;3.76;87.44;101004.25;5051980;28;20229;-66
2020/12/19 04:48:22;;;;;;;30.87;18.27;;;;;;;3.77;87.34;100998.03;5033561;28;20260;-66
2020/12/19 04:50:48;;;;;;;38.20;19.87;;;;;;;3.80;86.78;101000.59;5050993;28;20210;-67
2020/12/19 04:53:16;;;;;;;33.20;18.67;;;;;;;3.80;86.98;101000.59;5037366;28;20210;-67
2020/12/19 04:55:43;;;;;;;34.20;18.30;;;;;;;3.80;87.46;101001.47;5044353;28;20740;-66
2020/12/19 04:58:12;;;;;;;32.13;19.07;;;;;;;3.82;86.84;100998.78;5045717;28;20209;-67
2020/12/19 05:00:38;;;;;;;35.47;18.87;;;;;;;3.81;86.94;101003.19;5044941;28;20229;-67
2020/12/19 05:03:04;;;;;;;32.07;18.77;;;;;;;3.83;87.42;100997.88;5043710;28;20682;-67
2020/12/19 05:05:30;;;;;;;35.40;18.93;;;;;;;3.81;87.31;101003.19;5037101;28;20278;-67
2020/12/19 05:07:56;;;;;;;33.00;19.00;;;;;;;3.83;87.56;101003.16;5051768;28;20205;-67
2020/12/19 05:10:22;;;;;;;39.10;19.63;;;;;;;3.84;87.48;101000.47;5051084;28;20209;-66
2020/12/19 05:12:52;;;;;;;33.27;18.87;;;;;;;3.84;87.23;101002.22;5051637;28;20238;-66
2020/12/19 05:15:19;;;;;;;34.70;20.20;;;;;;;3.86;87.11;101005.69;5036815;28;20209;-65
2020/12/19 05:17:50;;;;;;;36.37;20.77;;;;;;;3.87;87.28;101004.78;5038396;28;20201;-67
2020/12/19 05:20:17;;;;;;;32.40;19.30;;;;;;;3.89;87.35;100994.19;5051790;28;20305;-66
2020/12/19 05:22:47;;;;;;;32.73;19.53;;;;;;;3.90;87.62;100991.53;5032094;28;20545;-66
2020/12/19 05:25:15;;;;;;;33.50;19.27;;;;;;;3.92;87.16;100997.63;5042390;28;20232;-66
2020/12/19 05:27:42;;;;;;;35.13;19.97;;;;;;;3.93;87.77;100987.94;5047381;28;20202;-67
2020/12/19 05:30:08;;;;;;;33.73;19.33;;;;;;;3.93;87.14;100991.44;5046674;28;20207;-66
2020/12/19 05:32:39;;;;;;;34.63;20.03;;;;;;;3.95;87.72;100994.84;5044309;28;20240;-66
2020/12/19 05:35:06;;;;;;;32.13;19.23;;;;;;;3.94;87.30;100987.84;5044998;28;20201;-66
2020/12/19 05:37:32;;;;;;;31.97;18.67;;;;;;;3.94;87.38;100979.94;5045313;28;20202;-67
2020/12/19 05:39:58;;;;;;;32.40;19.27;;;;;;;3.94;87.35;100982.59;5045095;28;20659;-67
2020/12/19 05:42:25;;;;;;;34.30;19.20;;;;;;;3.94;87.27;100981.75;5040715;28;20292;-66
2020/12/19 05:44:51;;;;;;;32.83;19.50;;;;;;;3.94;87.49;100976.47;5041108;28;20225;-66
2020/12/19 05:47:17;;;;;;;30.73;18.90;;;;;;;3.93;87.66;100970.34;5033877;28;20225;-66
2020/12/19 05:49:44;;;;;;;32.87;20.23;;;;;;;3.95;87.55;100973.78;5031915;28;20257;-66
2020/12/19 05:52:10;;;;;;;31.20;18.53;;;;;;;3.95;87.45;100968.50;5031532;28;20203;-67
2020/12/19 05:54:40;;;;;;;32.40;18.63;;;;;;;3.96;87.78;100975.50;5031856;28;20708;-66
2020/12/19 05:57:08;;;;;;;35.10;17.33;;;;;;;3.99;87.19;100964.00;5033288;28;20605;-66
2020/12/19 05:59:35;;;;;;;33.23;18.53;;;;;;;4.00;87.14;100956.06;5049683;28;20218;-66
2020/12/19 06:02:03;;;;;;;31.30;18.67;;;;;;;4.02;87.34;100969.19;5036073;28;20206;-66
2020/12/19 06:04:29;;;;;;;35.23;19.37;;;;;;;4.01;87.27;100965.69;5049232;28;20230;-68
2020/12/19 06:06:58;;;;;;;29.67;17.53;;;;;;;4.02;87.43;100950.75;5035450;28;20241;-67
2020/12/19 06:09:25;;;;;;;30.73;18.80;;;;;;;4.03;87.05;100948.06;5037371;28;20209;-66
2020/12/19 06:12:00;;;;;;;31.50;19.50;;;;;;;4.05;87.33;100948.00;5049568;28;20681;-66
2020/12/19 06:14:31;;;;;;;34.43;17.67;;;;;;;4.04;87.60;100947.16;5043739;28;20255;-66
2020/12/19 06:17:05;;;;;;;28.27;18.90;;;;;;;4.05;87.39;100948.88;5043445;28;20227;-66
2020/12/19 06:19:34;;;;;;;31.47;17.83;;;;;;;4.07;87.38;100938.28;5049829;28;20201;-67
2020/12/19 06:22:01;;;;;;;31.47;17.97;;;;;;;4.07;87.17;100938.28;5049345;28;20206;-67
2020/12/19 06:24:44;;;;;;;28.20;16.60;;;;;;;4.09;86.83;100941.75;5043025;28;20601;-67
2020/12/19 06:27:32;;;;;;;29.67;17.07;;;;;;;4.09;87.38;100944.38;5043135;28;20275;-66
2020/12/19 06:29:58;;;;;;;29.33;17.17;;;;;;;4.08;86.84;100943.50;5049081;28;20197;-67
2020/12/19 06:32:26;;;;;;;26.77;16.87;;;;;;;4.07;87.04;100940.94;5035617;28;20215;-66
2020/12/19 06:34:59;;;;;;;28.00;17.20;;;;;;;4.07;86.75;100951.47;5051948;28;20680;-67
2020/12/19 06:37:27;;;;;;;27.23;16.30;;;;;;;4.07;86.63;100939.16;5054236;28;20236;-66
2020/12/19 06:40:14;;;;;;;28.70;17.07;;;;;;;4.08;86.49;100937.38;5049091;28;20252;-67
2020/12/19 06:42:42;;;;;;;24.73;14.70;;;;;;;4.07;87.04;100954.97;5049494;28;20209;-67
2020/12/19 06:45:32;;;;;;;28.43;15.60;;;;;;;4.07;87.03;100952.31;5053278;28;20324;-67
2020/12/19 06:47:58;;;;;;;23.47;15.13;;;;;;;4.05;86.51;100943.59;5023717;28;20627;-67
2020/12/19 06:50:45;;;;;;;28.00;16.77;;;;;;;4.04;86.44;100931.34;5050440;28;20213;-67
2020/12/19 06:53:16;;;;;;;23.37;15.30;;;;;;;4.03;86.70;100926.97;5038276;28;20263;-67
2020/12/19 06:55:42;;;;;;;25.27;15.37;;;;;;;4.02;86.26;100925.25;5041697;28;20225;-66
2020/12/19 06:58:08;;;;;;;23.23;14.43;;;;;;;4.03;86.81;100929.63;5041288;28;20206;-68
2020/12/19 07:00:35;;;;;;;25.10;15.73;;;;;;;4.03;86.72;100940.16;5033876;28;20217;-67
2020/12/19 07:03:03;;;;;;;21.47;13.97;;;;;;;4.01;86.69;100941.09;5045205;28;20252;-67
2020/12/19 07:05:30;;;;;;;23.20;15.40;;;;;;;4.00;86.05;100950.78;5053341;28;20225;-67
2020/12/19 07:08:18;;;;;;;23.27;14.43;;;;;;;3.99;86.51;100954.31;5044817;28;20209;-67
2020/12/19 07:10:45;;;;;;;24.23;15.60;;;;;;;3.98;86.27;100949.97;5047713;28;20206;-67
2020/12/19 07:13:11;;;;;;;26.93;15.50;;;;;;;3.96;86.49;100945.66;5033882;28;20216;-66
2020/12/19 07:15:42;;;;;;;25.13;14.93;;;;;;;3.94;86.49;100950.97;5047226;28;20222;-67
2020/12/19 07:18:23;;;;;;;24.20;14.53;;;;;;;3.93;86.42;100949.28;5043404;28;20216;-67
2020/12/19 07:20:56;;;;;;;26.07;15.37;;;;;;;3.93;85.91;100937.88;5037299;28;20210;-67
2020/12/19 07:23:23;;;;;;;24.00;14.80;;;;;;;3.95;86.43;100946.56;5050892;28;20205;-66
2020/12/19 07:25:49;;;;;;;27.10;14.87;;;;;;;3.96;85.96;100959.69;5037339;28;20232;-68
2020/12/19 07:28:16;;;;;;;25.97;15.20;;;;;;;3.97;86.14;100953.50;5040507;28;20324;-67
2020/12/19 07:30:42;;;;;;;23.23;15.53;;;;;;;3.98;86.46;100954.38;5050644;28;20228;-66
2020/12/19 07:33:09;;;;;;;26.87;15.20;;;;;;;3.99;86.45;100964.88;5042737;28;20217;-67
2020/12/19 07:35:36;;;;;;;21.63;14.00;;;;;;;4.02;85.71;100956.00;5041860;28;20241;-67
2020/12/19 07:38:02;;;;;;;19.87;13.90;;;;;;;4.04;86.09;100970.88;5047014;28;20267;-67
2020/12/19 07:40:29;;;;;;;21.07;14.10;;;;;;;4.07;86.09;100962.88;5050707;28;20226;-67
2020/12/19 07:42:59;;;;;;;23.70;14.23;;;;;;;4.10;85.91;100954.88;5049266;28;20738;-67
2020/12/19 07:45:25;;;;;;;23.10;14.43;;;;;;;4.13;85.99;100960.03;5044120;28;20242;-67
2020/12/19 07:47:51;;;;;;;24.40;14.50;;;;;;;4.14;86.23;100952.97;5037398;28;20269;-67
2020/12/19 07:50:23;;;;;;;23.57;14.57;;;;;;;4.15;85.88;100938.88;5035147;28;20206;-67
2020/12/19 07:52:59;;;;;;;21.57;13.43;;;;;;;4.15;85.78;100941.53;5038798;28;20202;-67
2020/12/19 07:55:25;;;;;;;24.43;14.87;;;;;;;4.17;85.47;100947.59;5044210;28;20242;-67
2020/12/19 07:57:54;;;;;;;22.67;13.60;;;;;;;4.18;85.86;100947.56;5045307;28;20248;-67
2020/12/19 08:00:21;;;;;;;20.77;12.90;;;;;;;4.21;85.91;100951.00;5040616;28;20206;-67
2020/12/19 08:02:47;;;;;;;19.40;13.63;;;;;;;4.24;85.46;100943.00;5043372;28;20205;-67
2020/12/19 08:05:13;;;;;;;19.17;14.00;;;;;;;4.24;85.89;100943.88;5044467;28;20229;-66
2020/12/19 08:07:39;;;;;;;18.87;12.87;;;;;;;4.26;85.92;100934.16;5034372;28;20213;-67
2020/12/19 08:10:07;;;;;;;19.90;14.27;;;;;;;4.29;85.72;100936.69;5039535;28;20202;-67
2020/12/19 08:12:33;;;;;;;21.90;13.97;;;;;;;4.31;85.25;100940.09;5036061;28;20201;-66
2020/12/19 08:15:02;;;;;;;22.70;14.13;;;;;;;4.34;85.60;100947.91;5046460;28;20194;-67
2020/12/19 08:17:29;;;;;;;21.03;13.27;;;;;;;4.37;85.28;100942.56;5050249;28;20206;-66
2020/12/19 08:19:57;;;;;;;20.33;13.20;;;;;;;4.40;85.76;100944.22;5040564;28;20216;-67
2020/12/19 08:22:24;;;;;;;18.90;12.80;;;;;;;4.42;85.21;100952.97;5042329;28;20220;-66
2020/12/19 08:24:51;;;;;;;20.90;13.23;;;;;;;4.45;85.45;100943.16;5039395;28;20230;-67
2020/12/19 08:27:35;;;;;;;19.83;12.30;;;;;;;4.48;84.89;100950.09;5049260;28;20221;-67
2020/12/19 08:30:08;;;;;;;16.67;12.23;;;;;;;4.51;85.05;100947.34;5035350;28;20210;-67
2020/12/19 08:32:35;;;;;;;22.13;13.17;;;;;;;4.54;85.05;100937.56;5049869;28;20212;-67
2020/12/19 08:35:02;;;;;;;16.80;12.53;;;;;;;4.59;85.29;100942.69;5050440;28;20198;-67
2020/12/19 08:37:28;;;;;;;21.50;14.27;;;;;;;4.63;85.38;100941.69;5044187;28;20582;-67
2020/12/19 08:40:12;;;;;;;19.43;13.00;;;;;;;4.68;85.22;100939.72;5039964;28;20202;-67
2020/12/19 08:42:39;;;;;;;17.37;11.93;;;;;;;4.72;85.21;100930.81;5045474;28;20212;-66
2020/12/19 08:45:26;;;;;;;19.40;13.50;;;;;;;4.75;84.62;100932.47;5043805;28;20578;-67
2020/12/19 08:47:55;;;;;;;17.03;12.10;;;;;;;4.76;84.86;100939.47;5035909;28;20210;-67
2020/12/19 08:50:30;;;;;;;17.13;12.37;;;;;;;4.78;84.91;100935.88;5047589;28;20202;-67
2020/12/19 08:53:18;;;;;;;17.23;12.30;;;;;;;4.81;84.57;100948.97;5051663;28;20208;-65
2020/12/19 08:55:45;;;;;;;18.70;13.43;;;;;;;4.85;85.03;100950.56;5053184;28;20233;-67
2020/12/19 08:58:22;;;;;;;16.60;12.27;;;;;;;4.89;84.84;100946.91;5051464;28;20701;-66
2020/12/19 09:00:49;;;;;;;19.90;12.03;;;;;;;4.96;84.46;100944.06;5037832;28;20205;-67
2020/12/19 09:03:24;;;;;;;21.30;13.10;;;;;;;5.01;84.76;100947.41;5030589;28;20206;-67
2020/12/19 09:05:58;;;;;;;17.53;12.33;;;;;;;5.06;84.47;100942.81;5041669;28;20270;-67
2020/12/19 09:08:32;;;;;;;17.63;12.70;;;;;;;5.07;84.36;100941.88;5041872;28;20685;-66
2020/12/19 09:10:58;;;;;;;17.67;12.13;;;;;;;5.10;84.35;100952.34;5050083;28;20201;-65
2020/12/19 09:13:24;;;;;;;18.13;12.67;;;;;;;5.14;83.99;100953.97;5048144;28;20674;-67
2020/12/19 09:15:54;;;;;;;16.57;12.37;;;;;;;5.18;84.26;100961.72;5034948;28;20650;-67
2020/12/19 09:18:23;;;;;;;14.90;10.83;;;;;;;5.23;84.11;100953.63;5041588;28;20197;-68
2020/12/19 09:20:54;;;;;;;16.23;11.90;;;;;;;5.29;84.13;100963.97;5043488;28;20213;-67
2020/12/19 09:23:20;;;;;;;16.57;11.30;;;;;;;5.35;83.86;100963.75;5042974;28;20670;-67
2020/12/19 09:25:46;;;;;;;19.13;12.23;;;;;;;5.42;83.94;100952.03;5037251;28;20291;-66
2020/12/19 09:28:13;;;;;;;15.03;11.63;;;;;;;5.47;83.80;100950.06;5051169;28;20553;-66
2020/12/19 09:30:39;;;;;;;14.00;10.30;;;;;;;5.56;83.61;100951.50;5031206;28;20230;-67
2020/12/19 09:33:06;;;;;;;13.27;10.53;;;;;;;5.64;83.64;100957.34;5031643;28;20206;-67
2020/12/19 09:35:33;;;;;;;16.60;12.03;;;;;;;5.75;83.40;100964.88;5048770;28;20233;-67
2020/12/19 09:37:59;;;;;;;15.60;11.63;;;;;;;5.82;83.26;100967.22;5041938;28;20210;-66
2020/12/19 09:40:25;;;;;;;16.90;12.03;;;;;;;5.87;83.24;100961.78;5034448;28;20655;-67
2020/12/19 09:42:51;;;;;;;15.63;11.87;;;;;;;5.90;83.04;100959.91;5043230;28;20210;-66
2020/12/19 09:45:18;;;;;;;15.47;11.93;;;;;;;5.93;82.89;100954.47;5048140;28;20224;-66
2020/12/19 09:47:44;;;;;;;14.07;11.47;;;;;;;5.98;82.63;100959.59;5031248;28;20221;-67
2020/12/19 09:50:12;;;;;;;15.90;11.10;;;;;;;6.04;82.41;100963.78;5047348;28;20267;-66
2020/12/19 09:52:38;;;;;;;14.63;11.27;;;;;;;6.09;82.55;100960.00;5039716;28;20217;-67
2020/12/19 09:55:05;;;;;;;14.03;10.73;;;;;;;6.16;82.47;100952.69;5036076;28;20662;-66
2020/12/19 09:57:31;;;;;;;13.40;10.27;;;;;;;6.23;81.99;100952.41;5031136;28;20255;-67
2020/12/19 09:59:57;;;;;;;15.20;10.90;;;;;;;6.32;82.50;100959.09;5046128;28;20198;-66
2020/12/19 10:02:24;;;;;;;15.77;11.27;;;;;;;6.40;81.74;100956.16;5044090;28;20636;-66
2020/12/19 10:04:50;;;;;;;15.70;11.20;;;;;;;6.46;81.78;100955.88;5045311;28;20233;-65
2020/12/19 10:07:17;;;;;;;13.93;9.50;;;;;;;6.53;81.88;100946.75;5047217;28;20222;-66
2020/12/19 10:09:43;;;;;;;13.67;10.90;;;;;;;6.58;81.47;100944.78;5047202;28;20251;-66
2020/12/19 10:12:09;;;;;;;12.00;9.20;;;;;;;6.63;81.31;100941.00;5045974;28;20252;-66
2020/12/19 10:14:36;;;;;;;11.23;8.77;;;;;;;6.66;80.87;100944.44;5045960;28;20751;-66
2020/12/19 10:17:02;;;;;;;13.27;10.00;;;;;;;6.71;80.71;100932.75;5051309;28;20217;-67
2020/12/19 10:19:28;;;;;;;16.60;11.70;;;;;;;6.75;81.16;100930.84;5047397;28;20205;-67
2020/12/19 10:21:54;;;;;;;13.03;9.47;;;;;;;6.77;80.52;100929.00;5047839;28;20202;-67
2020/12/19 10:24:21;;;;;;;13.10;9.60;;;;;;;6.80;79.88;100920.91;5050138;28;20198;-67
2020/12/19 10:26:47;;;;;;;12.57;9.63;;;;;;;6.84;80.42;100917.19;5048278;28;20286;-67
2020/12/19 10:29:13;;;;;;;15.20;8.73;;;;;;;6.88;79.77;100911.69;5048998;28;20559;-66
2020/12/19 10:31:39;;;;;;;13.03;9.47;;;;;;;6.92;79.72;100913.28;5046045;28;20208;-66
2020/12/19 10:34:06;;;;;;;10.73;9.17;;;;;;;6.99;80.03;100913.88;5044772;28;20216;-65
2020/12/19 10:36:32;;;;;;;11.43;9.50;;;;;;;7.06;80.10;100906.53;5045040;28;20304;-66
2020/12/19 10:38:58;;;;;;;12.30;8.60;;;;;;;7.10;79.63;100900.16;5048255;28;20577;-66
2020/12/19 10:41:25;;;;;;;11.23;8.57;;;;;;;7.13;79.11;100900.88;5049812;28;20263;-66
2020/12/19 10:43:51;;;;;;;12.20;8.73;;;;;;;7.18;79.79;100911.25;5046539;28;20630;-66
2020/12/19 10:46:21;;;;;;;12.17;9.13;;;;;;;7.20;78.86;100906.75;5045789;28;20244;-65
2020/12/19 10:48:47;;;;;;;11.47;8.80;;;;;;;7.23;79.51;100906.63;5045393;28;20210;-66
2020/12/19 10:51:14;;;;;;;10.53;8.73;;;;;;;7.26;79.35;100901.19;5041340;28;20232;-66
2020/12/19 10:53:40;;;;;;;10.90;8.77;;;;;;;7.30;79.27;100903.63;5038055;28;20197;-66
2020/12/19 10:56:06;;;;;;;8.93;8.03;;;;;;;7.35;79.05;100897.25;5048199;28;20221;-66
2020/12/19 10:58:33;;;;;;;10.60;8.80;;;;;;;7.41;79.08;100891.66;5044744;28;20209;-66
2020/12/19 11:00:59;;;;;;;8.97;7.07;;;;;;;7.48;78.97;100880.72;5050023;28;20227;-66
2020/12/19 11:03:25;;;;;;;11.50;7.57;;;;;;;7.59;79.32;100894.31;5048528;28;20578;-65
2020/12/19 11:05:51;;;;;;;10.97;7.33;;;;;;;7.69;78.60;100894.75;5047480;28;20609;-65
2020/12/19 11:08:17;;;;;;;9.43;7.10;;;;;;;7.80;78.52;100873.03;5042259;28;20679;-65
2020/12/19 11:10:43;;;;;;;12.70;8.80;;;;;;;7.88;78.69;100873.53;5046401;28;20202;-65
2020/12/19 11:13:09;;;;;;;7.93;6.13;;;;;;;7.95;78.45;100874.94;5048353;28;21331;-65
2020/12/19 11:15:39;;;;;;;10.03;8.03;;;;;;;7.98;78.00;100873.00;5046078;28;20213;-65
2020/12/19 11:18:05;;;;;;;7.97;6.50;;;;;;;8.02;77.53;100869.25;5034827;28;20206;-65
2020/12/19 11:20:31;;;;;;;9.03;7.47;;;;;;;8.11;77.52;100867.06;5045874;28;20225;-65